createdAt,value
2023-05-17T00:02:24.676Z,102339.19
2023-05-17T00:04:54.299Z,102335.13
2023-05-17T00:07:22.210Z,102337.56
2023-05-17T00:09:50.084Z,102342.19
2023-05-17T00:12:17.874Z,102338.72
2023-05-17T00:14:47.033Z,102341.53
2023-05-17T00:17:14.897Z,102344.13
2023-05-17T00:19:42.793Z,102340.66
2023-05-17T00:22:10.555Z,102340.41
2023-05-17T00:24:38.408Z,102336.66
2023-05-17T00:27:06.703Z,102344.72
2023-05-17T00:29:35.197Z,102336.63
2023-05-17T00:32:04.704Z,102344.13
2023-05-17T00:34:32.574Z,102350.06
2023-05-17T00:37:00.445Z,102346.03
2023-05-17T00:39:28.301Z,102345.19
2023-05-17T00:41:56.521Z,102348.16
2023-05-17T00:44:24.366Z,102347.94
2023-05-17T00:46:52.115Z,102355.34
2023-05-17T00:49:21.292Z,102346.31
2023-05-17T00:51:49.685Z,102345.44
2023-05-17T00:54:17.581Z,102347.78
2023-05-17T00:56:45.959Z,102350.03
2023-05-17T00:59:14.747Z,102349.31
2023-05-17T01:01:44.072Z,102350.63
2023-05-17T01:04:13.625Z,102349.31
2023-05-17T01:06:43.054Z,102355.78
2023-05-17T01:09:11.084Z,102358.22
2023-05-17T01:11:49.604Z,102355.09
2023-05-17T01:14:34.579Z,102351.22
2023-05-17T01:17:05.439Z,102354.81
2023-05-17T01:19:52.862Z,102357.38
2023-05-17T01:22:33.976Z,102356.66
2023-05-17T01:25:11.973Z,102356.66
2023-05-17T01:27:44.028Z,102351.19
2023-05-17T01:30:18.178Z,102360.97
2023-05-17T01:32:48.242Z,102362.00
2023-05-17T01:35:17.452Z,102360.53
2023-05-17T01:37:45.550Z,102352.19
2023-05-17T01:40:17.158Z,102355.94
2023-05-17T01:42:49.908Z,102359.47
2023-05-17T01:45:28.353Z,102362.75
2023-05-17T01:48:14.641Z,102364.28
2023-05-17T01:50:50.168Z,102370.63
2023-05-17T01:53:22.096Z,102374.41
2023-05-17T01:55:54.067Z,102370.28
2023-05-17T01:58:27.520Z,102372.28
2023-05-17T02:00:57.842Z,102375.47
2023-05-17T02:03:26.100Z,102376.59
2023-05-17T02:05:54.178Z,102379.06
2023-05-17T02:08:22.217Z,102376.34
2023-05-17T02:10:50.136Z,102372.06
2023-05-17T02:13:18.042Z,102369.34
2023-05-17T02:15:47.415Z,102368.63
2023-05-17T02:18:15.345Z,102369.72
2023-05-17T02:20:43.544Z,102377.19
2023-05-17T02:23:11.712Z,102384.22
2023-05-17T02:25:39.784Z,102387.94
2023-05-17T02:28:07.596Z,102386.41
2023-05-17T02:30:36.776Z,102390.16
2023-05-17T02:33:06.325Z,102399.19
2023-05-17T02:35:34.560Z,102394.19
2023-05-17T02:38:02.716Z,102398.66
2023-05-17T02:40:30.910Z,102403.09
2023-05-17T02:42:58.736Z,102400.81
2023-05-17T02:45:27.458Z,102406.00
2023-05-17T02:47:55.795Z,102408.44
2023-05-17T02:50:25.128Z,102404.44
2023-05-17T02:52:53.115Z,102412.88
2023-05-17T02:55:21.644Z,102412.41
2023-05-17T02:57:49.507Z,102412.22
2023-05-17T03:00:18.537Z,102415.38
2023-05-17T03:02:46.557Z,102424.41
2023-05-17T03:05:14.555Z,102422.09
2023-05-17T03:07:49.125Z,102424.22
2023-05-17T03:10:17.354Z,102425.66
2023-05-17T03:12:46.934Z,102428.91
2023-05-17T03:15:17.969Z,102434.31
2023-05-17T03:17:46.324Z,102434.47
2023-05-17T03:20:14.470Z,102431.63
2023-05-17T03:22:42.327Z,102432.06
2023-05-17T03:25:12.037Z,102440.44
2023-05-17T03:27:39.975Z,102439.50
2023-05-17T03:30:08.993Z,102445.22
2023-05-17T03:32:40.498Z,102448.97
2023-05-17T03:35:09.733Z,102453.03
2023-05-17T03:37:38.909Z,102451.53
2023-05-17T03:40:08.564Z,102458.00
2023-05-17T03:42:38.604Z,102455.38
2023-05-17T03:45:08.141Z,102459.94
2023-05-17T03:47:36.982Z,102464.13
2023-05-17T03:50:05.915Z,102458.94
2023-05-17T03:52:34.247Z,102460.81
2023-05-17T03:55:02.211Z,102471.16
2023-05-17T03:57:31.757Z,102470.00
2023-05-17T04:00:01.096Z,102475.34
2023-05-17T04:02:29.147Z,102479.81
2023-05-17T04:04:57.062Z,102490.84
2023-05-17T04:07:25.401Z,102484.06
2023-05-17T04:09:53.414Z,102493.94
2023-05-17T04:12:21.318Z,102499.56
2023-05-17T04:14:49.082Z,102494.81
2023-05-17T04:17:18.302Z,102498.41
2023-05-17T04:19:47.624Z,102503.75
2023-05-17T04:22:15.699Z,102499.66
2023-05-17T04:24:43.939Z,102505.47
2023-05-17T04:27:12.190Z,102507.47
2023-05-17T04:29:40.899Z,102515.91
2023-05-17T04:32:09.981Z,102516.28
2023-05-17T04:34:41.018Z,102524.13
2023-05-17T04:37:10.324Z,102516.69
2023-05-17T04:39:38.752Z,102522.63
2023-05-17T04:42:06.736Z,102536.34
2023-05-17T04:44:38.227Z,102528.91
2023-05-17T04:47:06.620Z,102547.09
2023-05-17T04:49:34.611Z,102540.53
2023-05-17T04:52:06.346Z,102547.56
2023-05-17T04:54:35.732Z,102555.25
2023-05-17T04:57:03.665Z,102554.63
2023-05-17T04:59:51.947Z,102564.56
2023-05-17T05:02:20.094Z,102567.06
2023-05-17T05:04:48.182Z,102564.13
2023-05-17T05:07:17.472Z,102564.88
2023-05-17T05:09:46.746Z,102570.31
2023-05-17T05:12:16.422Z,102567.72
2023-05-17T05:14:44.542Z,102574.38
2023-05-17T05:17:12.545Z,102581.56
2023-05-17T05:19:42.165Z,102593.47
2023-05-17T05:22:11.391Z,102587.88
2023-05-17T05:24:41.916Z,102595.69
2023-05-17T05:27:10.208Z,102604.97
2023-05-17T05:29:39.112Z,102603.53
2023-05-17T05:32:08.391Z,102605.38
2023-05-17T05:34:41.712Z,102609.84
2023-05-17T05:37:09.785Z,102623.97
2023-05-17T05:39:38.128Z,102617.66
2023-05-17T05:42:07.985Z,102610.66
2023-05-17T05:44:35.992Z,102616.31
2023-05-17T05:47:06.194Z,102615.34
2023-05-17T05:49:34.121Z,102620.16
2023-05-17T05:52:02.045Z,102613.16
2023-05-17T05:54:31.447Z,102622.84
2023-05-17T05:57:00.842Z,102613.28
2023-05-17T05:59:30.589Z,102616.22
2023-05-17T06:01:59.865Z,102624.31
2023-05-17T06:04:40.797Z,102617.19
2023-05-17T06:07:13.258Z,102628.13
2023-05-17T06:09:41.205Z,102634.88
2023-05-17T06:12:09.297Z,102634.19
2023-05-17T06:14:38.674Z,102629.09
2023-05-17T06:17:06.756Z,102648.19
2023-05-17T06:19:34.829Z,102647.00
2023-05-17T06:22:02.851Z,102647.84
2023-05-17T06:24:30.960Z,102654.09
2023-05-17T06:26:58.918Z,102661.53
2023-05-17T06:29:26.751Z,102666.84
2023-05-17T06:31:58.131Z,102668.22
2023-05-17T06:34:26.334Z,102672.19
2023-05-17T06:36:54.152Z,102676.63
2023-05-17T06:39:22.140Z,102682.69
2023-05-17T06:41:50.063Z,102680.47
2023-05-17T06:44:18.893Z,102689.91
2023-05-17T06:46:46.845Z,102688.66
2023-05-17T06:49:16.239Z,102690.19
2023-05-17T06:51:44.088Z,102695.38
2023-05-17T06:54:12.029Z,102700.09
2023-05-17T06:56:39.912Z,102696.66
2023-05-17T06:59:07.887Z,102694.28
2023-05-17T07:01:36.194Z,102705.72
2023-05-17T07:04:04.403Z,102709.19
2023-05-17T07:06:34.589Z,102706.09
2023-05-17T07:09:02.561Z,102722.72
2023-05-17T07:11:32.942Z,102710.19
2023-05-17T07:14:00.730Z,102718.97
2023-05-17T07:16:28.802Z,102720.34
2023-05-17T07:18:56.886Z,102723.44
2023-05-17T07:21:24.829Z,102730.22
2023-05-17T07:23:53.986Z,102727.84
2023-05-17T07:26:22.600Z,102722.91
2023-05-17T07:28:50.531Z,102735.41
2023-05-17T07:31:19.086Z,102729.34
2023-05-17T07:33:48.170Z,102741.13
2023-05-17T07:36:15.992Z,102730.06
2023-05-17T07:38:44.030Z,102738.75
2023-05-17T07:41:16.833Z,102742.81
2023-05-17T07:43:44.625Z,102746.78
2023-05-17T07:46:12.647Z,102745.81
2023-05-17T07:48:40.683Z,102742.19
2023-05-17T07:51:08.861Z,102744.44
2023-05-17T07:53:36.674Z,102753.38
2023-05-17T07:56:07.020Z,102760.25
2023-05-17T07:58:36.350Z,102758.22
2023-05-17T08:01:04.225Z,102773.94
2023-05-17T08:03:32.083Z,102771.50
2023-05-17T08:05:59.990Z,102759.94
2023-05-17T08:08:28.037Z,102773.66
2023-05-17T08:10:56.084Z,102787.41
2023-05-17T08:13:24.545Z,102774.88
2023-05-17T08:16:01.428Z,102785.56
2023-05-17T08:18:38.334Z,102775.75
2023-05-17T08:21:06.284Z,102786.06
2023-05-17T08:23:34.249Z,102794.50
2023-05-17T08:26:02.296Z,102776.84
2023-05-17T08:28:31.977Z,102784.19
2023-05-17T08:31:01.303Z,102766.19
2023-05-17T08:33:29.150Z,102781.44
2023-05-17T08:36:00.041Z,102776.94
2023-05-17T08:38:28.065Z,102777.69
2023-05-17T08:40:57.062Z,102783.81
2023-05-17T08:43:27.796Z,102787.84
2023-05-17T08:45:57.806Z,102780.56
2023-05-17T08:48:31.324Z,102786.41
2023-05-17T08:51:01.538Z,102786.75
2023-05-17T08:53:30.417Z,102788.13
2023-05-17T08:56:00.498Z,102809.59
2023-05-17T08:58:41.135Z,102787.59
2023-05-17T09:01:21.694Z,102793.47
2023-05-17T09:03:52.057Z,102796.06
2023-05-17T09:06:22.811Z,102809.44
2023-05-17T09:08:52.645Z,102799.88
2023-05-17T09:11:27.963Z,102807.28
2023-05-17T09:14:00.263Z,102814.75
2023-05-17T09:16:30.051Z,102811.78
2023-05-17T09:19:00.369Z,102806.31
2023-05-17T09:21:29.749Z,102811.38
2023-05-17T09:24:06.215Z,102808.38
2023-05-17T09:26:41.595Z,102814.13
2023-05-17T09:29:09.936Z,102814.72
2023-05-17T09:31:37.731Z,102825.31
2023-05-17T09:34:08.290Z,102814.00
2023-05-17T09:36:38.005Z,102823.31
2023-05-17T09:39:10.601Z,102826.56
2023-05-17T09:41:43.700Z,102823.66
2023-05-17T09:44:13.173Z,102821.88
2023-05-17T09:46:43.341Z,102820.50
2023-05-17T09:49:13.958Z,102830.69
2023-05-17T09:51:43.779Z,102824.28
2023-05-17T09:54:12.242Z,102834.38
2023-05-17T09:56:40.555Z,102838.25
2023-05-17T09:59:13.341Z,102841.44
2023-05-17T10:01:42.259Z,102835.72
2023-05-17T10:04:12.754Z,102847.91
2023-05-17T10:06:48.523Z,102846.72
2023-05-17T10:09:22.809Z,102837.66
2023-05-17T10:11:54.121Z,102853.16
2023-05-17T10:14:27.426Z,102855.97
2023-05-17T10:16:56.515Z,102859.50
2023-05-17T10:19:27.338Z,102855.78
2023-05-17T10:22:05.215Z,102860.81
2023-05-17T10:24:39.253Z,102855.34
2023-05-17T10:27:08.293Z,102852.53
2023-05-17T10:29:37.386Z,102855.28
2023-05-17T10:32:08.078Z,102854.22
2023-05-17T10:34:39.526Z,102851.84
2023-05-17T10:37:08.943Z,102854.06
2023-05-17T10:39:39.109Z,102858.03
2023-05-17T10:44:41.322Z,102867.09
2023-05-17T10:47:10.008Z,102863.50
2023-05-17T10:49:41.644Z,102865.28
2023-05-17T10:52:13.870Z,102860.69
2023-05-17T10:54:43.626Z,102866.75
2023-05-17T10:57:20.957Z,102860.81
2023-05-17T10:59:59.883Z,102868.44
2023-05-17T11:02:29.491Z,102862.59
2023-05-17T11:05:00.504Z,102866.97
2023-05-17T11:07:32.367Z,102857.50
2023-05-17T11:10:14.275Z,102862.94
2023-05-17T11:12:44.128Z,102850.72
2023-05-17T11:15:14.282Z,102846.78
2023-05-17T11:17:54.115Z,102846.97
2023-05-17T11:20:35.045Z,102854.69
2023-05-17T11:23:05.358Z,102852.63
2023-05-17T11:25:36.243Z,102855.69
2023-05-17T11:28:08.839Z,102868.84
2023-05-17T11:30:42.168Z,102855.88
2023-05-17T11:33:17.302Z,102850.03
2023-05-17T11:35:55.729Z,102859.94
2023-05-17T11:38:24.633Z,102859.16
2023-05-17T11:40:55.311Z,102860.53
2023-05-17T11:43:25.485Z,102862.00
2023-05-17T11:45:57.593Z,102850.81
2023-05-17T11:48:28.122Z,102863.63
2023-05-17T11:51:00.015Z,102853.28
2023-05-17T11:53:32.650Z,102850.06
2023-05-17T11:56:04.284Z,102839.00
2023-05-17T11:58:33.315Z,102844.53
2023-05-17T12:01:01.142Z,102847.00
2023-05-17T12:03:30.275Z,102855.09
2023-05-17T12:06:10.492Z,102848.19
2023-05-17T12:08:40.152Z,102849.94
2023-05-17T12:11:09.031Z,102841.03
2023-05-17T12:13:37.098Z,102859.25
2023-05-17T12:16:10.405Z,102854.56
2023-05-17T12:18:39.240Z,102849.53
2023-05-17T12:21:11.416Z,102842.16
2023-05-17T12:23:41.145Z,102843.47
2023-05-17T12:26:10.837Z,102844.84
2023-05-17T12:28:40.283Z,102854.81
2023-05-17T12:31:11.099Z,102858.38
2023-05-17T12:33:41.406Z,102847.09
2023-05-17T12:36:12.760Z,102846.22
2023-05-17T12:38:42.307Z,102842.19
2023-05-17T12:41:12.892Z,102849.81
2023-05-17T12:43:41.639Z,102845.28
2023-05-17T12:46:11.515Z,102845.97
2023-05-17T12:48:41.136Z,102849.13
2023-05-17T12:51:14.676Z,102847.00
2023-05-17T12:53:44.091Z,102842.53
2023-05-17T12:56:17.350Z,102840.31
2023-05-17T12:58:45.259Z,102847.44
2023-05-17T13:01:14.602Z,102839.41
2023-05-17T13:03:43.097Z,102829.47
2023-05-17T13:06:11.310Z,102849.34
2023-05-17T13:08:43.512Z,102837.78
2023-05-17T13:11:13.646Z,102840.75
2023-05-17T13:13:42.088Z,102842.63
2023-05-17T13:16:10.060Z,102841.31
2023-05-17T13:18:55.653Z,102839.75
2023-05-17T13:21:24.497Z,102840.88
2023-05-17T13:23:53.711Z,102832.34
2023-05-17T13:26:22.491Z,102837.78
2023-05-17T13:28:51.267Z,102842.38
2023-05-17T13:31:19.341Z,102835.16
2023-05-17T13:33:50.007Z,102841.25
2023-05-17T13:36:18.015Z,102842.41
2023-05-17T13:38:45.996Z,102839.53
2023-05-17T13:41:15.722Z,102834.75
2023-05-17T13:43:43.535Z,102840.78
2023-05-17T13:46:11.869Z,102834.13
2023-05-17T13:48:41.988Z,102840.59
2023-05-17T13:51:11.174Z,102841.28
2023-05-17T13:53:39.566Z,102835.09
2023-05-17T13:56:08.114Z,102846.69
2023-05-17T13:58:37.329Z,102841.91
2023-05-17T14:01:06.633Z,102846.31
2023-05-17T14:03:34.827Z,102849.78
2023-05-17T14:06:04.827Z,102842.84
2023-05-17T14:08:33.378Z,102848.03
2023-05-17T14:11:01.287Z,102845.78
2023-05-17T14:13:29.856Z,102844.47
2023-05-17T14:15:59.319Z,102848.22
2023-05-17T14:18:27.258Z,102844.47
2023-05-17T14:20:55.580Z,102847.03
2023-05-17T14:23:23.700Z,102854.25
2023-05-17T14:25:51.939Z,102852.50
2023-05-17T14:28:20.205Z,102848.09
2023-05-17T14:30:48.950Z,102844.50
2023-05-17T14:33:18.833Z,102848.50
2023-05-17T14:35:47.830Z,102855.38
2023-05-17T14:38:16.101Z,102849.31
2023-05-17T14:40:44.442Z,102847.25
2023-05-17T14:43:12.615Z,102844.13
2023-05-17T14:45:40.849Z,102849.16
2023-05-17T14:48:09.118Z,102859.00
2023-05-17T14:50:38.645Z,102852.63
2023-05-17T14:53:06.577Z,102845.28
2023-05-17T14:55:35.084Z,102845.59
2023-05-17T14:58:03.374Z,102852.94
2023-05-17T15:00:31.696Z,102858.25
2023-05-17T15:02:59.655Z,102863.72
2023-05-17T15:05:29.009Z,102853.22
2023-05-17T15:07:58.706Z,102855.56
2023-05-17T15:10:26.698Z,102863.38
2023-05-17T15:12:54.745Z,102858.19
2023-05-17T15:15:22.966Z,102854.59
2023-05-17T15:17:51.899Z,102864.56
2023-05-17T15:20:20.689Z,102853.09
2023-05-17T15:22:49.550Z,102861.72
2023-05-17T15:25:19.480Z,102856.50
2023-05-17T15:27:49.158Z,102859.78
2023-05-17T15:30:17.432Z,102862.31
2023-05-17T15:32:46.129Z,102855.03
2023-05-17T15:35:14.393Z,102854.31
2023-05-17T15:37:42.585Z,102856.09
2023-05-17T15:40:12.162Z,102846.25
2023-05-17T15:42:41.804Z,102849.13
2023-05-17T15:45:11.267Z,102847.88
2023-05-17T15:47:43.464Z,102853.88
2023-05-17T15:50:12.372Z,102840.56
2023-05-17T15:52:40.437Z,102850.84
2023-05-17T15:55:09.708Z,102849.25
2023-05-17T15:57:37.749Z,102847.69
2023-05-17T16:00:08.905Z,102853.41
2023-05-17T16:02:36.898Z,102860.19
2023-05-17T16:05:05.353Z,102866.34
2023-05-17T16:07:33.117Z,102858.56
2023-05-17T16:10:01.036Z,102854.94
2023-05-17T16:12:28.968Z,102858.22
2023-05-17T16:14:57.233Z,102863.19
2023-05-17T16:17:26.426Z,102864.34
2023-05-17T16:19:54.550Z,102864.44
2023-05-17T16:22:22.732Z,102869.03
2023-05-17T16:24:53.917Z,102868.78
2023-05-17T16:27:23.060Z,102870.66
2023-05-17T16:29:50.904Z,102865.56
2023-05-17T16:32:19.098Z,102871.72
2023-05-17T16:34:48.608Z,102864.66
2023-05-17T16:37:16.571Z,102864.56
2023-05-17T16:39:44.348Z,102869.94
2023-05-17T16:42:12.146Z,102870.69
2023-05-17T16:44:40.090Z,102870.00
2023-05-17T16:47:08.027Z,102867.94
2023-05-17T16:49:36.737Z,102875.59
2023-05-17T16:52:06.922Z,102872.56
2023-05-17T16:54:35.435Z,102877.44
2023-05-17T16:57:07.166Z,102876.28
2023-05-17T16:59:36.173Z,102880.69
2023-05-17T17:02:04.628Z,102882.13
2023-05-17T17:04:32.860Z,102874.56
2023-05-17T17:07:01.040Z,102875.47
2023-05-17T17:09:30.310Z,102870.63
2023-05-17T17:11:58.249Z,102874.38
2023-05-17T17:14:26.169Z,102879.28
2023-05-17T17:16:53.902Z,102873.47
2023-05-17T17:19:21.823Z,102877.47
2023-05-17T17:21:49.849Z,102883.84
2023-05-17T17:24:18.793Z,102875.63
2023-05-17T17:26:49.962Z,102878.88
2023-05-17T17:29:17.798Z,102886.13
2023-05-17T17:31:45.597Z,102883.53
2023-05-17T17:34:13.454Z,102874.13
2023-05-17T17:36:41.401Z,102880.25
2023-05-17T17:39:10.293Z,102879.84
2023-05-17T17:41:38.082Z,102882.94
2023-05-17T17:44:07.387Z,102882.34
2023-05-17T17:46:35.175Z,102889.38
2023-05-17T17:49:03.139Z,102883.16
2023-05-17T17:51:31.220Z,102881.66
2023-05-17T17:53:59.018Z,102885.22
2023-05-17T17:56:27.342Z,102876.72
2023-05-17T17:58:56.095Z,102880.19
2023-05-17T18:01:25.592Z,102886.06
2023-05-17T18:03:53.584Z,102882.63
2023-05-17T18:06:21.371Z,102893.22
2023-05-17T18:08:49.185Z,102887.47
2023-05-17T18:11:17.197Z,102897.16
2023-05-17T18:13:45.121Z,102896.28
2023-05-17T18:16:12.944Z,102892.56
2023-05-17T18:18:42.166Z,102899.63
2023-05-17T18:21:10.581Z,102897.59
2023-05-17T18:23:38.521Z,102901.06
2023-05-17T18:26:06.772Z,102902.91
2023-05-17T18:28:42.266Z,102896.72
2023-05-17T18:31:10.879Z,102898.56
2023-05-17T18:33:39.197Z,102899.91
2023-05-17T18:36:09.712Z,102903.59
2023-05-17T18:38:37.602Z,102911.22
2023-05-17T18:41:05.525Z,102908.59
2023-05-17T18:43:33.551Z,102908.88
2023-05-17T18:46:01.437Z,102911.00
2023-05-17T18:48:29.312Z,102910.59
2023-05-17T18:50:57.589Z,102912.91
2023-05-17T18:53:27.032Z,102913.69
2023-05-17T18:55:55.577Z,102913.03
2023-05-17T18:58:23.405Z,102916.03
2023-05-17T19:00:51.359Z,102921.34
2023-05-17T19:03:19.244Z,102918.78
2023-05-17T19:05:47.257Z,102920.25
2023-05-17T19:08:15.701Z,102920.50
2023-05-17T19:10:45.712Z,102913.50
2023-05-17T19:13:13.827Z,102918.72
2023-05-17T19:15:42.155Z,102915.97
2023-05-17T19:18:10.059Z,102915.38
2023-05-17T19:20:38.173Z,102918.09
2023-05-17T19:23:06.809Z,102916.81
2023-05-17T19:25:34.700Z,102922.63
2023-05-17T19:28:04.065Z,102918.28
2023-05-17T19:30:33.073Z,102916.88
2023-05-17T19:33:01.734Z,102920.06
2023-05-17T19:35:29.888Z,102910.84
2023-05-17T19:37:58.421Z,102916.34
2023-05-17T19:40:26.381Z,102915.59
2023-05-17T19:42:54.317Z,102911.53
2023-05-17T19:45:23.830Z,102921.50
2023-05-17T19:47:53.474Z,102924.22
2023-05-17T19:50:21.724Z,102931.03
2023-05-17T19:52:49.856Z,102924.69
2023-05-17T19:55:22.144Z,102925.22
2023-05-17T19:57:50.322Z,102921.63
2023-05-17T20:00:18.882Z,102931.69
2023-05-17T20:02:48.186Z,102925.50
2023-05-17T20:05:17.160Z,102925.03
2023-05-17T20:07:45.057Z,102917.41
2023-05-17T20:10:16.162Z,102928.63
2023-05-17T20:12:44.145Z,102925.03
2023-05-17T20:15:13.464Z,102916.25
2023-05-17T20:17:41.373Z,102927.19
2023-05-17T20:20:11.501Z,102925.72
2023-05-17T20:22:41.053Z,102923.69
2023-05-17T20:25:09.030Z,102936.41
2023-05-17T20:27:36.893Z,102933.94
2023-05-17T20:30:06.194Z,102935.31
2023-05-17T20:32:34.454Z,102923.09
2023-05-17T20:35:02.777Z,102925.16
2023-05-17T20:37:32.165Z,102927.19
2023-05-17T20:40:00.334Z,102924.19
2023-05-17T20:42:28.922Z,102925.78
2023-05-17T20:44:57.785Z,102927.75
2023-05-17T20:47:26.252Z,102930.09
2023-05-17T20:49:54.143Z,102926.50
2023-05-17T20:52:38.015Z,102926.75
2023-05-17T20:55:12.654Z,102933.13
2023-05-17T20:57:40.560Z,102929.38
2023-05-17T21:00:11.862Z,102929.50
2023-05-17T21:02:40.087Z,102938.16
2023-05-17T21:05:09.180Z,102932.78
2023-05-17T21:07:39.185Z,102930.91
2023-05-17T21:10:08.122Z,102931.47
2023-05-17T21:12:37.504Z,102934.31
2023-05-17T21:15:16.494Z,102937.94
2023-05-17T21:17:53.770Z,102933.66
2023-05-17T21:20:23.088Z,102937.00
2023-05-17T21:22:52.514Z,102930.66
2023-05-17T21:25:20.600Z,102930.53
2023-05-17T21:27:49.833Z,102940.34
2023-05-17T21:30:17.974Z,102934.97
2023-05-17T21:32:46.036Z,102923.31
2023-05-17T21:35:13.868Z,102925.91
2023-05-17T21:37:42.223Z,102930.66
2023-05-17T21:40:10.946Z,102931.53
2023-05-17T21:42:38.914Z,102934.38
2023-05-17T21:45:09.482Z,102930.31
2023-05-17T21:47:37.364Z,102930.03
2023-05-17T21:50:05.885Z,102935.66
2023-05-17T21:52:33.748Z,102933.16
2023-05-17T21:55:01.775Z,102927.47
2023-05-17T21:57:29.661Z,102934.97
2023-05-17T21:59:57.800Z,102916.69
2023-05-17T22:02:27.380Z,102924.78
2023-05-17T22:04:56.925Z,102919.59
2023-05-17T22:07:25.288Z,102920.41
2023-05-17T22:09:54.690Z,102917.63
2023-05-17T22:12:26.337Z,102915.88
2023-05-17T22:14:55.880Z,102921.94
2023-05-17T22:17:35.110Z,102923.09
2023-05-17T22:20:14.360Z,102915.31
2023-05-17T22:22:42.211Z,102911.22
2023-05-17T22:25:11.594Z,102914.84
2023-05-17T22:27:39.478Z,102915.09
2023-05-17T22:30:09.336Z,102918.97
2023-05-17T22:32:38.274Z,102920.69
2023-05-17T22:35:07.362Z,102923.59
2023-05-17T22:37:37.707Z,102924.13
2023-05-17T22:40:08.394Z,102927.31
2023-05-17T22:42:40.399Z,102920.13
2023-05-17T22:45:09.576Z,102932.47
2023-05-17T22:47:38.746Z,102930.34
2023-05-17T22:50:08.652Z,102936.81
2023-05-17T22:52:41.250Z,102939.94
2023-05-17T22:55:10.756Z,102937.56
2023-05-17T22:57:39.447Z,102932.34
2023-05-17T23:00:09.506Z,102938.81
2023-05-17T23:02:37.758Z,102936.81
2023-05-17T23:05:07.893Z,102946.03
2023-05-17T23:07:38.456Z,102934.09
2023-05-17T23:10:09.299Z,102938.69
2023-05-17T23:12:38.774Z,102932.06
2023-05-17T23:15:10.177Z,102936.00
2023-05-17T23:17:42.713Z,102939.94
2023-05-17T23:20:12.127Z,102929.38
2023-05-17T23:22:41.460Z,102939.59
2023-05-17T23:25:10.192Z,102945.19
2023-05-17T23:27:38.028Z,102938.88
2023-05-17T23:30:07.597Z,102940.59
2023-05-17T23:32:35.551Z,102940.00
2023-05-17T23:35:04.767Z,102939.78
2023-05-17T23:37:33.649Z,102944.13
2023-05-17T23:40:04.830Z,102949.72
2023-05-17T23:42:32.888Z,102935.19
2023-05-17T23:45:01.093Z,102942.88
2023-05-17T23:47:29.549Z,102938.28
2023-05-17T23:49:57.911Z,102938.28
2023-05-17T23:52:26.590Z,102942.25
2023-05-17T23:54:57.374Z,102928.50
2023-05-17T23:57:26.601Z,102932.50
2023-05-17T23:59:54.480Z,102921.91
